sensor_id;sensor_type;location;lat;lon;timestamp;temperature;humidity
47514;DHT22;33951;51.988;5.910;2023-05-10T04:01:15;13.30;99.90
47514;DHT22;33951;51.988;5.910;2023-05-10T04:03:40;13.30;99.90
47514;DHT22;33951;51.988;5.910;2023-05-10T04:06:06;13.20;99.90
47514;DHT22;33951;51.988;5.910;2023-05-10T04:08:37;13.30;99.90
47514;DHT22;33951;51.988;5.910;2023-05-10T04:13:33;13.30;99.90
47514;DHT22;33951;51.988;5.910;2023-05-10T04:15:58;13.30;99.90
47514;DHT22;33951;51.988;5.910;2023-05-10T04:18:24;13.30;99.90
47514;DHT22;33951;51.988;5.910;2023-05-10T04:20:52;13.20;99.90
47514;DHT22;33951;51.988;5.910;2023-05-10T04:23:18;13.30;99.90
47514;DHT22;33951;51.988;5.910;2023-05-10T04:25:44;13.20;99.90
47514;DHT22;33951;51.988;5.910;2023-05-10T04:28:12;13.20;99.90
47514;DHT22;33951;51.988;5.910;2023-05-10T04:30:38;13.10;99.90
47514;DHT22;33951;51.988;5.910;2023-05-10T04:33:03;13.10;99.90
47514;DHT22;33951;51.988;5.910;2023-05-10T04:35:29;13.20;99.90
47514;DHT22;33951;51.988;5.910;2023-05-10T04:37:57;13.30;99.90
47514;DHT22;33951;51.988;5.910;2023-05-10T04:40:28;13.20;99.90
47514;DHT22;33951;51.988;5.910;2023-05-10T04:42:54;13.00;99.90
47514;DHT22;33951;51.988;5.910;2023-05-10T04:45:20;13.10;99.90
47514;DHT22;33951;51.988;5.910;2023-05-10T04:47:53;13.00;99.90
47514;DHT22;33951;51.988;5.910;2023-05-10T04:50:24;12.90;99.90
47514;DHT22;33951;51.988;5.910;2023-05-10T04:52:53;12.90;99.90
47514;DHT22;33951;51.988;5.910;2023-05-10T04:55:20;12.80;99.90
47514;DHT22;33951;51.988;5.910;2023-05-10T04:57:59;12.80;99.90
47514;DHT22;33951;51.988;5.910;2023-05-10T05:00:28;13.00;99.90
47514;DHT22;33951;51.988;5.910;2023-05-10T05:02:54;13.30;99.90
47514;DHT22;33951;51.988;5.910;2023-05-10T05:05:21;13.30;99.90
47514;DHT22;33951;51.988;5.910;2023-05-10T05:07:49;13.30;99.90
47514;DHT22;33951;51.988;5.910;2023-05-10T05:10:25;13.30;99.90
47514;DHT22;33951;51.988;5.910;2023-05-10T05:12:53;13.50;99.90
47514;DHT22;33951;51.988;5.910;2023-05-10T05:15:21;13.30;99.90
47514;DHT22;33951;51.988;5.910;2023-05-10T05:17:47;13.30;99.90
47514;DHT22;33951;51.988;5.910;2023-05-10T05:20:16;13.30;99.90
47514;DHT22;33951;51.988;5.910;2023-05-10T05:22:43;13.40;99.90
47514;DHT22;33951;51.988;5.910;2023-05-10T05:25:12;13.40;99.90
47514;DHT22;33951;51.988;5.910;2023-05-10T05:28:00;13.50;99.90
47514;DHT22;33951;51.988;5.910;2023-05-10T05:30:29;13.50;99.90
47514;DHT22;33951;51.988;5.910;2023-05-10T05:33:03;13.50;99.90
47514;DHT22;33951;51.988;5.910;2023-05-10T05:35:29;13.50;99.90
47514;DHT22;33951;51.988;5.910;2023-05-10T05:38:02;13.50;99.90
47514;DHT22;33951;51.988;5.910;2023-05-10T05:40:27;13.40;99.90
47514;DHT22;33951;51.988;5.910;2023-05-10T05:42:55;13.40;99.90
47514;DHT22;33951;51.988;5.910;2023-05-10T05:45:21;13.30;99.90
47514;DHT22;33951;51.988;5.910;2023-05-10T05:47:47;13.30;99.90
47514;DHT22;33951;51.988;5.910;2023-05-10T05:50:21;13.30;99.90
47514;DHT22;33951;51.988;5.910;2023-05-10T05:52:52;13.40;99.90
47514;DHT22;33951;51.988;5.910;2023-05-10T05:55:21;13.60;99.90
47514;DHT22;33951;51.988;5.910;2023-05-10T05:57:47;13.70;99.90
47514;DHT22;33951;51.988;5.910;2023-05-10T06:00:16;13.50;99.90
47514;DHT22;33951;51.988;5.910;2023-05-10T06:02:44;13.50;99.90
47514;DHT22;33951;51.988;5.910;2023-05-10T06:05:12;13.60;99.90
47514;DHT22;33951;51.988;5.910;2023-05-10T06:07:39;13.70;99.90
47514;DHT22;33951;51.988;5.910;2023-05-10T06:10:08;13.70;99.90
47514;DHT22;33951;51.988;5.910;2023-05-10T06:12:34;13.70;99.90
47514;DHT22;33951;51.988;5.910;2023-05-10T06:15:04;13.60;99.90
47514;DHT22;33951;51.988;5.910;2023-05-10T06:17:35;13.80;99.90
47514;DHT22;33951;51.988;5.910;2023-05-10T06:20:10;13.80;99.90
47514;DHT22;33951;51.988;5.910;2023-05-10T06:22:36;13.70;99.90
47514;DHT22;33951;51.988;5.910;2023-05-10T06:25:02;13.70;99.90
47514;DHT22;33951;51.988;5.910;2023-05-10T06:27:28;13.60;99.90
47514;DHT22;33951;51.988;5.910;2023-05-10T06:29:56;13.40;99.90
47514;DHT22;33951;51.988;5.910;2023-05-10T06:32:25;13.40;99.90
47514;DHT22;33951;51.988;5.910;2023-05-10T06:37:26;13.40;99.90
47514;DHT22;33951;51.988;5.910;2023-05-10T06:39:52;13.30;99.90
47514;DHT22;33951;51.988;5.910;2023-05-10T06:42:18;13.20;99.90
47514;DHT22;33951;51.988;5.910;2023-05-10T06:44:49;13.20;99.90
47514;DHT22;33951;51.988;5.910;2023-05-10T06:47:19;13.20;99.90
47514;DHT22;33951;51.988;5.910;2023-05-10T06:49:45;13.10;99.90
47514;DHT22;33951;51.988;5.910;2023-05-10T06:52:10;13.20;99.90
47514;DHT22;33951;51.988;5.910;2023-05-10T06:54:36;13.10;99.90
47514;DHT22;33951;51.988;5.910;2023-05-10T06:57:02;13.20;99.90
47514;DHT22;33951;51.988;5.910;2023-05-10T06:59:37;13.30;99.90
47514;DHT22;33951;51.988;5.910;2023-05-10T07:02:05;13.30;99.90
47514;DHT22;33951;51.988;5.910;2023-05-10T07:04:34;13.40;99.90
47514;DHT22;33951;51.988;5.910;2023-05-10T07:07:07;13.40;99.90
47514;DHT22;33951;51.988;5.910;2023-05-10T07:09:41;13.40;99.90
47514;DHT22;33951;51.988;5.910;2023-05-10T07:12:36;13.40;99.90
47514;DHT22;33951;51.988;5.910;2023-05-10T07:15:11;13.60;99.90
47514;DHT22;33951;51.988;5.910;2023-05-10T07:17:56;13.60;99.90
47514;DHT22;33951;51.988;5.910;2023-05-10T07:20:25;13.60;99.90
47514;DHT22;33951;51.988;5.910;2023-05-10T07:23:07;13.60;99.90
47514;DHT22;33951;51.988;5.910;2023-05-10T07:28:57;13.70;99.90
47514;DHT22;33951;51.988;5.910;2023-05-10T07:32:09;13.70;99.90
47514;DHT22;33951;51.988;5.910;2023-05-10T07:34:50;13.60;99.90
47514;DHT22;33951;51.988;5.910;2023-05-10T07:44:31;14.00;99.90
47514;DHT22;33951;51.988;5.910;2023-05-10T07:47:02;13.90;99.90
47514;DHT22;33951;51.988;5.910;2023-05-10T07:49:39;13.80;99.90
47514;DHT22;33951;51.988;5.910;2023-05-10T07:52:05;13.80;99.90
47514;DHT22;33951;51.988;5.910;2023-05-10T07:54:33;13.80;99.90
47514;DHT22;33951;51.988;5.910;2023-05-10T07:57:16;14.00;99.90
47514;DHT22;33951;51.988;5.910;2023-05-10T08:00:06;14.20;99.90
47514;DHT22;33951;51.988;5.910;2023-05-10T08:02:42;14.50;99.90
47514;DHT22;33951;51.988;5.910;2023-05-10T08:08:03;14.40;99.90
47514;DHT22;33951;51.988;5.910;2023-05-10T08:10:35;14.40;99.90
47514;DHT22;33951;51.988;5.910;2023-05-10T08:13:14;14.40;99.90
47514;DHT22;33951;51.988;5.910;2023-05-10T08:15:42;14.30;99.90
47514;DHT22;33951;51.988;5.910;2023-05-10T08:18:08;14.20;99.90
47514;DHT22;33951;51.988;5.910;2023-05-10T08:20:36;14.20;99.90
47514;DHT22;33951;51.988;5.910;2023-05-10T08:23:01;14.10;99.90
47514;DHT22;33951;51.988;5.910;2023-05-10T08:25:30;14.20;99.90
47514;DHT22;33951;51.988;5.910;2023-05-10T08:28:00;14.20;99.90
47514;DHT22;33951;51.988;5.910;2023-05-10T08:30:36;14.30;99.90
47514;DHT22;33951;51.988;5.910;2023-05-10T08:33:09;14.20;99.90
47514;DHT22;33951;51.988;5.910;2023-05-10T08:35:40;14.10;99.90
47514;DHT22;33951;51.988;5.910;2023-05-10T08:38:08;14.20;99.90
47514;DHT22;33951;51.988;5.910;2023-05-10T08:40:34;14.10;99.90
47514;DHT22;33951;51.988;5.910;2023-05-10T08:43:11;14.20;99.90
47514;DHT22;33951;51.988;5.910;2023-05-10T08:45:39;14.20;99.90
47514;DHT22;33951;51.988;5.910;2023-05-10T08:51:23;13.90;99.90
47514;DHT22;33951;51.988;5.910;2023-05-10T08:54:00;13.90;99.90
47514;DHT22;33951;51.988;5.910;2023-05-10T09:07:16;13.90;99.90
47514;DHT22;33951;51.988;5.910;2023-05-10T09:13:53;13.90;99.90
47514;DHT22;33951;51.988;5.910;2023-05-10T09:17:06;14.00;99.90
47514;DHT22;33951;51.988;5.910;2023-05-10T09:19:48;14.20;99.90
47514;DHT22;33951;51.988;5.910;2023-05-10T09:23:00;14.30;99.90
47514;DHT22;33951;51.988;5.910;2023-05-10T09:29:44;14.40;99.90
47514;DHT22;33951;51.988;5.910;2023-05-10T09:36:38;14.60;99.90
47514;DHT22;33951;51.988;5.910;2023-05-10T09:59:43;14.60;99.90
47514;DHT22;33951;51.988;5.910;2023-05-10T10:06:29;14.50;99.90
47514;DHT22;33951;51.988;5.910;2023-05-10T10:13:29;14.40;99.90
47514;DHT22;33951;51.988;5.910;2023-05-10T10:16:18;14.60;99.90
47514;DHT22;33951;51.988;5.910;2023-05-10T10:18:47;14.60;99.90
47514;DHT22;33951;51.988;5.910;2023-05-10T10:21:14;14.50;99.90
47514;DHT22;33951;51.988;5.910;2023-05-10T10:23:40;14.50;99.90
47514;DHT22;33951;51.988;5.910;2023-05-10T10:26:06;14.50;99.90
47514;DHT22;33951;51.988;5.910;2023-05-10T10:28:56;14.70;99.90
47514;DHT22;33951;51.988;5.910;2023-05-10T10:34:28;14.70;99.90
47514;DHT22;33951;51.988;5.910;2023-05-10T10:36:56;14.70;99.90
47514;DHT22;33951;51.988;5.910;2023-05-10T10:39:27;14.70;99.90
47514;DHT22;33951;51.988;5.910;2023-05-10T10:41:57;14.90;99.90
47514;DHT22;33951;51.988;5.910;2023-05-10T10:44:33;15.20;99.90
47514;DHT22;33951;51.988;5.910;2023-05-10T10:52:41;15.40;99.90
47514;DHT22;33951;51.988;5.910;2023-05-10T10:55:33;15.40;99.90
47514;DHT22;33951;51.988;5.910;2023-05-10T10:58:04;15.40;99.90
47514;DHT22;33951;51.988;5.910;2023-05-10T11:00:38;15.20;99.90
47514;DHT22;33951;51.988;5.910;2023-05-10T11:03:10;15.20;99.90
47514;DHT22;33951;51.988;5.910;2023-05-10T11:05:48;15.20;99.90
47514;DHT22;33951;51.988;5.910;2023-05-10T11:11:06;15.20;99.90
47514;DHT22;33951;51.988;5.910;2023-05-10T11:13:45;15.10;99.90
47514;DHT22;33951;51.988;5.910;2023-05-10T11:16:24;15.20;99.90
47514;DHT22;33951;51.988;5.910;2023-05-10T11:19:18;15.20;99.90
47514;DHT22;33951;51.988;5.910;2023-05-10T11:22:11;15.30;99.90
47514;DHT22;33951;51.988;5.910;2023-05-10T11:24:39;15.30;99.90
47514;DHT22;33951;51.988;5.910;2023-05-10T11:27:09;15.60;99.90
47514;DHT22;33951;51.988;5.910;2023-05-10T11:29:43;15.60;99.90
47514;DHT22;33951;51.988;5.910;2023-05-10T11:32:11;15.70;99.90
47514;DHT22;33951;51.988;5.910;2023-05-10T11:34:38;15.90;99.90
47514;DHT22;33951;51.988;5.910;2023-05-10T11:37:11;15.90;99.90
47514;DHT22;33951;51.988;5.910;2023-05-10T11:39:45;15.80;99.90
47514;DHT22;33951;51.988;5.910;2023-05-10T11:42:13;16.10;99.90
47514;DHT22;33951;51.988;5.910;2023-05-10T11:44:58;16.20;99.90
47514;DHT22;33951;51.988;5.910;2023-05-10T11:47:57;16.30;99.90
47514;DHT22;33951;51.988;5.910;2023-05-10T11:50:34;16.40;99.90
47514;DHT22;33951;51.988;5.910;2023-05-10T11:53:09;16.50;99.90
47514;DHT22;33951;51.988;5.910;2023-05-10T11:55:51;16.50;99.90
47514;DHT22;33951;51.988;5.910;2023-05-10T11:58:20;16.60;99.90
47514;DHT22;33951;51.988;5.910;2023-05-10T12:01:03;16.70;99.90
47514;DHT22;33951;51.988;5.910;2023-05-10T12:03:37;16.70;99.90
47514;DHT22;33951;51.988;5.910;2023-05-10T12:06:26;16.30;99.90
47514;DHT22;33951;51.988;5.910;2023-05-10T12:08:57;16.40;99.90
47514;DHT22;33951;51.988;5.910;2023-05-10T12:11:28;16.40;99.90
47514;DHT22;33951;51.988;5.910;2023-05-10T12:13:56;16.50;99.90
47514;DHT22;33951;51.988;5.910;2023-05-10T12:16:28;16.60;99.90
47514;DHT22;33951;51.988;5.910;2023-05-10T12:18:59;16.80;99.90
47514;DHT22;33951;51.988;5.910;2023-05-10T12:21:33;16.90;99.90
47514;DHT22;33951;51.988;5.910;2023-05-10T12:24:06;16.90;99.90
47514;DHT22;33951;51.988;5.910;2023-05-10T12:26:42;17.00;99.90
47514;DHT22;33951;51.988;5.910;2023-05-10T12:29:41;17.00;99.90
47514;DHT22;33951;51.988;5.910;2023-05-10T12:32:17;17.10;99.90
47514;DHT22;33951;51.988;5.910;2023-05-10T12:34:57;17.20;99.90
47514;DHT22;33951;51.988;5.910;2023-05-10T12:37:33;17.30;99.90
47514;DHT22;33951;51.988;5.910;2023-05-10T12:40:30;17.60;99.90
47514;DHT22;33951;51.988;5.910;2023-05-10T12:43:03;17.70;99.90
47514;DHT22;33951;51.988;5.910;2023-05-10T12:45:49;17.90;99.90
47514;DHT22;33951;51.988;5.910;2023-05-10T12:48:15;17.70;99.90
47514;DHT22;33951;51.988;5.910;2023-05-10T12:50:44;17.60;99.90
47514;DHT22;33951;51.988;5.910;2023-05-10T12:53:18;17.40;99.90
47514;DHT22;33951;51.988;5.910;2023-05-10T12:55:54;17.30;99.90
47514;DHT22;33951;51.988;5.910;2023-05-10T12:58:49;17.20;99.90
47514;DHT22;33951;51.988;5.910;2023-05-10T13:01:33;17.10;99.90
47514;DHT22;33951;51.988;5.910;2023-05-10T13:04:25;17.10;99.90
47514;DHT22;33951;51.988;5.910;2023-05-10T13:06:58;17.30;99.90
47514;DHT22;33951;51.988;5.910;2023-05-10T13:09:41;17.60;99.90
47514;DHT22;33951;51.988;5.910;2023-05-10T13:12:22;17.80;99.90
47514;DHT22;33951;51.988;5.910;2023-05-10T13:14:53;18.10;99.90
47514;DHT22;33951;51.988;5.910;2023-05-10T13:17:22;18.20;99.90
47514;DHT22;33951;51.988;5.910;2023-05-10T13:19:52;18.20;99.90
47514;DHT22;33951;51.988;5.910;2023-05-10T13:25:15;18.10;99.90
47514;DHT22;33951;51.988;5.910;2023-05-10T13:27:46;18.00;99.90
47514;DHT22;33951;51.988;5.910;2023-05-10T13:30:20;17.80;99.90
47514;DHT22;33951;51.988;5.910;2023-05-10T13:32:59;17.70;99.90
47514;DHT22;33951;51.988;5.910;2023-05-10T13:35:27;17.40;99.90
47514;DHT22;33951;51.988;5.910;2023-05-10T13:38:12;17.30;99.90
47514;DHT22;33951;51.988;5.910;2023-05-10T13:40:45;17.20;99.90
47514;DHT22;33951;51.988;5.910;2023-05-10T13:43:21;17.20;99.90
47514;DHT22;33951;51.988;5.910;2023-05-10T13:45:52;17.30;99.90
47514;DHT22;33951;51.988;5.910;2023-05-10T13:48:32;17.30;99.90
47514;DHT22;33951;51.988;5.910;2023-05-10T13:51:03;17.20;99.90
47514;DHT22;33951;51.988;5.910;2023-05-10T13:56:45;17.00;99.90
47514;DHT22;33951;51.988;5.910;2023-05-10T13:59:17;16.70;99.90
47514;DHT22;33951;51.988;5.910;2023-05-10T14:01:48;16.80;99.90
47514;DHT22;33951;51.988;5.910;2023-05-10T14:04:32;16.70;99.90
47514;DHT22;33951;51.988;5.910;2023-05-10T14:07:09;16.40;99.90
47514;DHT22;33951;51.988;5.910;2023-05-10T14:09:54;16.20;99.90
47514;DHT22;33951;51.988;5.910;2023-05-10T14:12:33;16.20;99.90
47514;DHT22;33951;51.988;5.910;2023-05-10T14:15:25;16.10;99.90
47514;DHT22;33951;51.988;5.910;2023-05-10T14:18:02;15.90;99.90
47514;DHT22;33951;51.988;5.910;2023-05-10T14:20:30;15.80;99.90
47514;DHT22;33951;51.988;5.910;2023-05-10T14:23:02;15.90;99.90
47514;DHT22;33951;51.988;5.910;2023-05-10T14:25:28;16.10;99.90
47514;DHT22;33951;51.988;5.910;2023-05-10T14:27:54;15.90;99.90
47514;DHT22;33951;51.988;5.910;2023-05-10T14:30:25;15.90;99.90
47514;DHT22;33951;51.988;5.910;2023-05-10T14:33:08;15.70;99.90
47514;DHT22;33951;51.988;5.910;2023-05-10T14:35:37;15.50;99.90
47514;DHT22;33951;51.988;5.910;2023-05-10T14:38:12;15.60;99.90
47514;DHT22;33951;51.988;5.910;2023-05-10T14:40:43;15.60;99.90
47514;DHT22;33951;51.988;5.910;2023-05-10T14:43:20;15.60;99.90
47514;DHT22;33951;51.988;5.910;2023-05-10T14:45:48;15.50;99.90
47514;DHT22;33951;51.988;5.910;2023-05-10T14:48:14;15.50;99.90
47514;DHT22;33951;51.988;5.910;2023-05-10T14:50:51;15.40;99.90
47514;DHT22;33951;51.988;5.910;2023-05-10T14:53:20;15.40;99.90
47514;DHT22;33951;51.988;5.910;2023-05-10T14:55:52;15.40;99.90
47514;DHT22;33951;51.988;5.910;2023-05-10T14:58:30;15.30;99.90
47514;DHT22;33951;51.988;5.910;2023-05-10T15:01:12;15.20;99.90
47514;DHT22;33951;51.988;5.910;2023-05-10T15:03:45;15.10;99.90
47514;DHT22;33951;51.988;5.910;2023-05-10T15:06:13;15.10;99.90
47514;DHT22;33951;51.988;5.910;2023-05-10T15:08:44;15.10;99.90
47514;DHT22;33951;51.988;5.910;2023-05-10T15:11:12;15.10;99.90
47514;DHT22;33951;51.988;5.910;2023-05-10T15:13:52;15.30;99.90
47514;DHT22;33951;51.988;5.910;2023-05-10T15:16:23;15.30;99.90
47514;DHT22;33951;51.988;5.910;2023-05-10T15:18:51;15.20;99.90
47514;DHT22;33951;51.988;5.910;2023-05-10T15:21:32;15.30;99.90
47514;DHT22;33951;51.988;5.910;2023-05-10T15:24:09;15.40;99.90
47514;DHT22;33951;51.988;5.910;2023-05-10T15:26:38;15.50;99.90
47514;DHT22;33951;51.988;5.910;2023-05-10T15:29:13;15.80;99.90
47514;DHT22;33951;51.988;5.910;2023-05-10T15:32:11;15.90;99.90
47514;DHT22;33951;51.988;5.910;2023-05-10T15:35:08;16.00;99.90
47514;DHT22;33951;51.988;5.910;2023-05-10T15:40:52;15.80;99.90
47514;DHT22;33951;51.988;5.910;2023-05-10T15:43:26;15.60;99.90
47514;DHT22;33951;51.988;5.910;2023-05-10T15:48:35;15.50;99.90
47514;DHT22;33951;51.988;5.910;2023-05-10T15:51:09;15.50;99.90
47514;DHT22;33951;51.988;5.910;2023-05-10T15:53:35;15.70;99.90
47514;DHT22;33951;51.988;5.910;2023-05-10T15:56:07;16.00;99.90
47514;DHT22;33951;51.988;5.910;2023-05-10T15:58:35;15.90;99.90
47514;DHT22;33951;51.988;5.910;2023-05-10T16:01:06;15.70;99.90
47514;DHT22;33951;51.988;5.910;2023-05-10T16:03:33;15.70;99.90
47514;DHT22;33951;51.988;5.910;2023-05-10T16:06:16;15.60;99.90
47514;DHT22;33951;51.988;5.910;2023-05-10T16:08:42;15.50;99.90
47514;DHT22;33951;51.988;5.910;2023-05-10T16:11:10;15.60;99.90
47514;DHT22;33951;51.988;5.910;2023-05-10T16:13:36;15.70;99.90
47514;DHT22;33951;51.988;5.910;2023-05-10T16:16:11;15.80;99.90
47514;DHT22;33951;51.988;5.910;2023-05-10T16:18:37;15.80;99.90
47514;DHT22;33951;51.988;5.910;2023-05-10T16:21:05;15.90;99.90
47514;DHT22;33951;51.988;5.910;2023-05-10T16:23:32;15.70;99.90
47514;DHT22;33951;51.988;5.910;2023-05-10T16:26:07;15.80;99.90
47514;DHT22;33951;51.988;5.910;2023-05-10T16:28:33;16.00;99.90
47514;DHT22;33951;51.988;5.910;2023-05-10T16:31:02;16.00;99.90
47514;DHT22;33951;51.988;5.910;2023-05-10T16:33:33;16.00;99.90
47514;DHT22;33951;51.988;5.910;2023-05-10T16:36:02;16.20;99.90
47514;DHT22;33951;51.988;5.910;2023-05-10T16:38:31;16.30;99.90
47514;DHT22;33951;51.988;5.910;2023-05-10T16:40:57;16.50;99.90
47514;DHT22;33951;51.988;5.910;2023-05-10T16:43:22;16.50;99.90
47514;DHT22;33951;51.988;5.910;2023-05-10T16:45:48;16.40;99.90
47514;DHT22;33951;51.988;5.910;2023-05-10T16:48:14;16.50;99.90
47514;DHT22;33951;51.988;5.910;2023-05-10T16:51:08;16.60;99.90
47514;DHT22;33951;51.988;5.910;2023-05-10T16:53:34;16.70;99.90
47514;DHT22;33951;51.988;5.910;2023-05-10T16:56:00;17.10;99.90
47514;DHT22;33951;51.988;5.910;2023-05-10T16:58:29;17.50;99.90
47514;DHT22;33951;51.988;5.910;2023-05-10T17:00:57;17.80;99.90
47514;DHT22;33951;51.988;5.910;2023-05-10T17:03:31;18.10;99.90
47514;DHT22;33951;51.988;5.910;2023-05-10T17:06:12;17.80;99.90
47514;DHT22;33951;51.988;5.910;2023-05-10T17:08:49;17.80;99.90
47514;DHT22;33951;51.988;5.910;2023-05-10T17:11:15;17.80;99.90
47514;DHT22;33951;51.988;5.910;2023-05-10T17:13:46;17.80;99.90
47514;DHT22;33951;51.988;5.910;2023-05-10T17:16:15;17.80;99.90
47514;DHT22;33951;51.988;5.910;2023-05-10T17:19:09;17.80;99.90
47514;DHT22;33951;51.988;5.910;2023-05-10T17:21:43;17.80;99.90
47514;DHT22;33951;51.988;5.910;2023-05-10T17:24:22;17.80;99.90
47514;DHT22;33951;51.988;5.910;2023-05-10T17:26:57;17.70;99.90
47514;DHT22;33951;51.988;5.910;2023-05-10T17:29:24;17.60;99.90
47514;DHT22;33951;51.988;5.910;2023-05-10T17:31:55;17.30;99.90
47514;DHT22;33951;51.988;5.910;2023-05-10T17:34:25;17.20;99.90
47514;DHT22;33951;51.988;5.910;2023-05-10T17:36:53;17.40;99.90
47514;DHT22;33951;51.988;5.910;2023-05-10T17:39:27;17.40;99.90
47514;DHT22;33951;51.988;5.910;2023-05-10T17:41:53;17.50;99.90
47514;DHT22;33951;51.988;5.910;2023-05-10T17:44:22;17.40;99.90
47514;DHT22;33951;51.988;5.910;2023-05-10T17:47:27;17.40;99.90
47514;DHT22;33951;51.988;5.910;2023-05-10T17:49:53;17.40;99.90
47514;DHT22;33951;51.988;5.910;2023-05-10T17:52:27;17.50;99.90
47514;DHT22;33951;51.988;5.910;2023-05-10T17:54:53;17.50;99.90
47514;DHT22;33951;51.988;5.910;2023-05-10T17:57:22;17.40;99.90
47514;DHT22;33951;51.988;5.910;2023-05-10T17:59:57;17.40;99.90
47514;DHT22;33951;51.988;5.910;2023-05-10T18:02:36;17.40;99.90
47514;DHT22;33951;51.988;5.910;2023-05-10T18:05:05;17.20;99.90
47514;DHT22;33951;51.988;5.910;2023-05-10T18:07:51;17.00;99.90
47514;DHT22;33951;51.988;5.910;2023-05-10T18:10:23;17.10;99.90
47514;DHT22;33951;51.988;5.910;2023-05-10T18:12:54;17.20;99.90
47514;DHT22;33951;51.988;5.910;2023-05-10T18:15:39;17.00;99.90
47514;DHT22;33951;51.988;5.910;2023-05-10T18:18:16;17.00;99.90
47514;DHT22;33951;51.988;5.910;2023-05-10T18:21:04;17.10;99.90
47514;DHT22;33951;51.988;5.910;2023-05-10T18:23:33;17.10;99.90
47514;DHT22;33951;51.988;5.910;2023-05-10T18:26:14;17.10;99.90
47514;DHT22;33951;51.988;5.910;2023-05-10T18:28:45;17.20;99.90
47514;DHT22;33951;51.988;5.910;2023-05-10T18:31:15;17.20;99.90
47514;DHT22;33951;51.988;5.910;2023-05-10T18:33:41;17.30;99.90
47514;DHT22;33951;51.988;5.910;2023-05-10T18:36:07;16.90;99.90
47514;DHT22;33951;51.988;5.910;2023-05-10T18:38:33;16.70;99.90
47514;DHT22;33951;51.988;5.910;2023-05-10T18:41:04;16.60;99.90
47514;DHT22;33951;51.988;5.910;2023-05-10T18:43:45;16.60;99.90
47514;DHT22;33951;51.988;5.910;2023-05-10T18:46:22;16.70;99.90
47514;DHT22;33951;51.988;5.910;2023-05-10T18:48:53;16.50;99.90
47514;DHT22;33951;51.988;5.910;2023-05-10T18:51:42;16.50;99.90
47514;DHT22;33951;51.988;5.910;2023-05-10T19:00:35;16.50;99.90
47514;DHT22;33951;51.988;5.910;2023-05-10T19:12:14;16.50;99.90
47514;DHT22;33951;51.988;5.910;2023-05-10T19:14:39;16.50;99.90
47514;DHT22;33951;51.988;5.910;2023-05-10T19:17:08;16.60;99.90
47514;DHT22;33951;51.988;5.910;2023-05-10T19:19:39;16.60;99.90
47514;DHT22;33951;51.988;5.910;2023-05-10T19:22:05;16.50;99.90
47514;DHT22;33951;51.988;5.910;2023-05-10T19:24:34;16.50;99.90
47514;DHT22;33951;51.988;5.910;2023-05-10T19:27:03;16.50;99.90
47514;DHT22;33951;51.988;5.910;2023-05-10T19:29:40;16.50;99.90
47514;DHT22;33951;51.988;5.910;2023-05-10T19:32:20;16.50;99.90
47514;DHT22;33951;51.988;5.910;2023-05-10T19:34:54;16.40;99.90
47514;DHT22;33951;51.988;5.910;2023-05-10T19:37:25;16.30;99.90
47514;DHT22;33951;51.988;5.910;2023-05-10T19:40:17;16.20;99.90
47514;DHT22;33951;51.988;5.910;2023-05-10T19:42:44;16.10;99.90
47514;DHT22;33951;51.988;5.910;2023-05-10T19:45:19;16.10;99.90
47514;DHT22;33951;51.988;5.910;2023-05-10T19:47:57;16.20;99.90
47514;DHT22;33951;51.988;5.910;2023-05-10T19:50:29;16.10;99.90
47514;DHT22;33951;51.988;5.910;2023-05-10T19:52:57;16.10;99.90
47514;DHT22;33951;51.988;5.910;2023-05-10T19:55:43;16.10;99.90
47514;DHT22;33951;51.988;5.910;2023-05-10T19:58:21;16.00;99.90
47514;DHT22;33951;51.988;5.910;2023-05-10T20:00:57;15.80;99.90
47514;DHT22;33951;51.988;5.910;2023-05-10T20:03:48;15.80;99.90
47514;DHT22;33951;51.988;5.910;2023-05-10T20:06:31;15.60;99.90
47514;DHT22;33951;51.988;5.910;2023-05-10T20:09:12;15.50;99.90
47514;DHT22;33951;51.988;5.910;2023-05-10T20:11:48;15.50;99.90
47514;DHT22;33951;51.988;5.910;2023-05-10T20:14:19;15.50;99.90
47514;DHT22;33951;51.988;5.910;2023-05-10T20:16:48;15.50;99.90
47514;DHT22;33951;51.988;5.910;2023-05-10T20:19:39;15.50;99.90
47514;DHT22;33951;51.988;5.910;2023-05-10T20:22:11;15.40;99.90
47514;DHT22;33951;51.988;5.910;2023-05-10T20:24:39;15.40;99.90
47514;DHT22;33951;51.988;5.910;2023-05-10T20:27:07;15.20;99.90
47514;DHT22;33951;51.988;5.910;2023-05-10T20:29:33;15.10;99.90
47514;DHT22;33951;51.988;5.910;2023-05-10T20:31:59;15.00;99.90
47514;DHT22;33951;51.988;5.910;2023-05-10T20:34:27;15.00;99.90
47514;DHT22;33951;51.988;5.910;2023-05-10T20:36:58;15.00;99.90
47514;DHT22;33951;51.988;5.910;2023-05-10T20:39:27;15.10;99.90
47514;DHT22;33951;51.988;5.910;2023-05-10T20:41:53;15.10;99.90
47514;DHT22;33951;51.988;5.910;2023-05-10T20:44:24;15.10;99.90
47514;DHT22;33951;51.988;5.910;2023-05-10T20:46:51;15.10;99.90
47514;DHT22;33951;51.988;5.910;2023-05-10T20:49:16;15.10;99.90
47514;DHT22;33951;51.988;5.910;2023-05-10T20:51:47;15.10;99.90
47514;DHT22;33951;51.988;5.910;2023-05-10T20:54:13;15.10;99.90
47514;DHT22;33951;51.988;5.910;2023-05-10T20:56:49;15.00;99.90
47514;DHT22;33951;51.988;5.910;2023-05-10T20:59:15;14.90;99.90
47514;DHT22;33951;51.988;5.910;2023-05-10T21:01:52;14.90;99.90
47514;DHT22;33951;51.988;5.910;2023-05-10T21:04:18;15.00;99.90
47514;DHT22;33951;51.988;5.910;2023-05-10T21:06:46;15.00;99.90
47514;DHT22;33951;51.988;5.910;2023-05-10T21:09:14;14.90;99.90
47514;DHT22;33951;51.988;5.910;2023-05-10T21:11:47;15.00;99.90
47514;DHT22;33951;51.988;5.910;2023-05-10T21:14:16;15.00;99.90
47514;DHT22;33951;51.988;5.910;2023-05-10T21:16:42;15.00;99.90
47514;DHT22;33951;51.988;5.910;2023-05-10T21:19:07;15.00;99.90
47514;DHT22;33951;51.988;5.910;2023-05-10T21:21:43;15.10;99.90
47514;DHT22;33951;51.988;5.910;2023-05-10T21:24:09;15.10;99.90
47514;DHT22;33951;51.988;5.910;2023-05-10T21:26:38;15.10;99.90
47514;DHT22;33951;51.988;5.910;2023-05-10T21:29:06;15.00;99.90
47514;DHT22;33951;51.988;5.910;2023-05-10T21:31:34;14.90;99.90
47514;DHT22;33951;51.988;5.910;2023-05-10T21:34:00;15.10;99.90
47514;DHT22;33951;51.988;5.910;2023-05-10T21:36:26;15.10;99.90
47514;DHT22;33951;51.988;5.910;2023-05-10T21:38:54;15.00;99.90
47514;DHT22;33951;51.988;5.910;2023-05-10T21:41:20;15.00;99.90
47514;DHT22;33951;51.988;5.910;2023-05-10T21:43:46;14.90;99.90
47514;DHT22;33951;51.988;5.910;2023-05-10T21:46:11;15.00;99.90
47514;DHT22;33951;51.988;5.910;2023-05-10T21:48:43;15.00;99.90
47514;DHT22;33951;51.988;5.910;2023-05-10T21:51:08;15.10;99.90
47514;DHT22;33951;51.988;5.910;2023-05-10T21:53:43;15.00;99.90
47514;DHT22;33951;51.988;5.910;2023-05-10T21:56:08;15.00;99.90
47514;DHT22;33951;51.988;5.910;2023-05-10T21:58:37;15.00;99.90